sensor_id;sensor_type;location;lat;lon;timestamp;P1;durP1;ratioP1;P2;durP2;ratioP2
71343;SDS011;59146;43.850;25.948;2022-08-11T00:01:48;6.87;;;1.90;;
71343;SDS011;59146;43.850;25.948;2022-08-11T00:04:17;2.60;;;1.48;;
71343;SDS011;59146;43.850;25.948;2022-08-11T00:06:45;6.43;;;1.80;;
71343;SDS011;59146;43.850;25.948;2022-08-11T00:09:17;2.95;;;1.70;;
71343;SDS011;59146;43.850;25.948;2022-08-11T00:14:19;4.70;;;2.00;;
71343;SDS011;59146;43.850;25.948;2022-08-11T00:16:58;5.60;;;1.67;;
71343;SDS011;59146;43.850;25.948;2022-08-11T00:19:26;8.93;;;2.33;;
71343;SDS011;59146;43.850;25.948;2022-08-11T00:21:55;1.30;;;1.20;;
71343;SDS011;59146;43.850;25.948;2022-08-11T00:24:21;1.98;;;1.77;;
71343;SDS011;59146;43.850;25.948;2022-08-11T00:26:51;4.50;;;1.88;;
71343;SDS011;59146;43.850;25.948;2022-08-11T00:29:18;7.47;;;2.33;;
71343;SDS011;59146;43.850;25.948;2022-08-11T00:31:45;4.03;;;2.50;;
71343;SDS011;59146;43.850;25.948;2022-08-11T00:34:15;6.43;;;2.15;;
71343;SDS011;59146;43.850;25.948;2022-08-11T00:36:46;1.97;;;1.40;;
71343;SDS011;59146;43.850;25.948;2022-08-11T00:39:18;2.13;;;1.60;;
71343;SDS011;59146;43.850;25.948;2022-08-11T00:41:55;2.38;;;1.60;;
71343;SDS011;59146;43.850;25.948;2022-08-11T00:50:50;4.70;;;2.22;;
71343;SDS011;59146;43.850;25.948;2022-08-11T00:53:52;4.35;;;1.73;;
71343;SDS011;59146;43.850;25.948;2022-08-11T01:19:20;2.10;;;1.75;;
71343;SDS011;59146;43.850;25.948;2022-08-11T01:22:28;12.93;;;2.25;;
71343;SDS011;59146;43.850;25.948;2022-08-11T01:28:15;2.42;;;1.65;;
71343;SDS011;59146;43.850;25.948;2022-08-11T01:50:44;5.40;;;1.52;;
71343;SDS011;59146;43.850;25.948;2022-08-11T02:04:37;7.03;;;1.75;;
71343;SDS011;59146;43.850;25.948;2022-08-11T02:07:32;4.07;;;1.80;;
71343;SDS011;59146;43.850;25.948;2022-08-11T02:10:25;3.90;;;1.80;;
71343;SDS011;59146;43.850;25.948;2022-08-11T02:16:16;4.03;;;1.92;;
71343;SDS011;59146;43.850;25.948;2022-08-11T02:18:47;5.50;;;1.80;;
71343;SDS011;59146;43.850;25.948;2022-08-11T02:21:49;3.03;;;1.80;;
71343;SDS011;59146;43.850;25.948;2022-08-11T02:24:59;5.90;;;1.98;;
71343;SDS011;59146;43.850;25.948;2022-08-11T02:27:52;1.80;;;1.70;;
71343;SDS011;59146;43.850;25.948;2022-08-11T02:30:27;4.70;;;1.60;;
71343;SDS011;59146;43.850;25.948;2022-08-11T02:35:57;2.78;;;1.98;;
71343;SDS011;59146;43.850;25.948;2022-08-11T02:38:39;4.55;;;1.98;;
71343;SDS011;59146;43.850;25.948;2022-08-11T02:52:40;15.45;;;3.67;;
71343;SDS011;59146;43.850;25.948;2022-08-11T02:55:28;3.97;;;2.30;;
71343;SDS011;59146;43.850;25.948;2022-08-11T02:59:03;4.78;;;1.90;;
71343;SDS011;59146;43.850;25.948;2022-08-11T03:01:16;5.40;;;1.90;;
71343;SDS011;59146;43.850;25.948;2022-08-11T03:03:54;4.60;;;2.00;;
71343;SDS011;59146;43.850;25.948;2022-08-11T03:06:37;5.05;;;1.90;;
71343;SDS011;59146;43.850;25.948;2022-08-11T03:11:55;8.20;;;2.13;;
71343;SDS011;59146;43.850;25.948;2022-08-11T03:14:57;6.00;;;1.80;;
71343;SDS011;59146;43.850;25.948;2022-08-11T03:20:52;3.85;;;1.80;;
71343;SDS011;59146;43.850;25.948;2022-08-11T03:26:21;4.80;;;1.83;;
71343;SDS011;59146;43.850;25.948;2022-08-11T03:29:00;2.75;;;1.80;;
71343;SDS011;59146;43.850;25.948;2022-08-11T03:31:43;2.75;;;1.77;;
71343;SDS011;59146;43.850;25.948;2022-08-11T03:34:18;3.47;;;1.50;;
71343;SDS011;59146;43.850;25.948;2022-08-11T03:53:43;3.53;;;1.85;;
71343;SDS011;59146;43.850;25.948;2022-08-11T04:30:58;1.40;;;1.30;;
71343;SDS011;59146;43.850;25.948;2022-08-11T05:01:27;6.38;;;1.63;;
71343;SDS011;59146;43.850;25.948;2022-08-11T05:07:20;8.35;;;1.52;;
71343;SDS011;59146;43.850;25.948;2022-08-11T05:15:13;5.30;;;2.30;;
71343;SDS011;59146;43.850;25.948;2022-08-11T05:18:07;4.80;;;1.65;;
71343;SDS011;59146;43.850;25.948;2022-08-11T05:20:57;4.47;;;1.83;;
71343;SDS011;59146;43.850;25.948;2022-08-11T05:24:02;4.90;;;1.83;;
71343;SDS011;59146;43.850;25.948;2022-08-11T05:26:51;4.07;;;1.70;;
71343;SDS011;59146;43.850;25.948;2022-08-11T05:32:24;4.68;;;2.28;;
71343;SDS011;59146;43.850;25.948;2022-08-11T05:35:13;5.05;;;1.52;;
71343;SDS011;59146;43.850;25.948;2022-08-11T05:37:43;2.75;;;2.03;;
71343;SDS011;59146;43.850;25.948;2022-08-11T05:40:29;3.30;;;2.00;;
71343;SDS011;59146;43.850;25.948;2022-08-11T05:43:15;2.47;;;1.60;;
71343;SDS011;59146;43.850;25.948;2022-08-11T05:46:00;5.85;;;1.67;;
71343;SDS011;59146;43.850;25.948;2022-08-11T05:48:48;5.78;;;1.80;;
71343;SDS011;59146;43.850;25.948;2022-08-11T05:51:42;6.32;;;1.73;;
71343;SDS011;59146;43.850;25.948;2022-08-11T05:54:27;13.63;;;2.45;;
71343;SDS011;59146;43.850;25.948;2022-08-11T05:57:30;3.08;;;2.10;;
71343;SDS011;59146;43.850;25.948;2022-08-11T06:00:00;4.88;;;2.00;;
71343;SDS011;59146;43.850;25.948;2022-08-11T06:02:39;3.83;;;1.92;;
71343;SDS011;59146;43.850;25.948;2022-08-11T06:05:12;4.32;;;1.80;;
71343;SDS011;59146;43.850;25.948;2022-08-11T06:07:40;9.52;;;3.17;;
71343;SDS011;59146;43.850;25.948;2022-08-11T06:10:06;10.45;;;2.38;;
71343;SDS011;59146;43.850;25.948;2022-08-11T06:12:32;7.43;;;4.22;;
71343;SDS011;59146;43.850;25.948;2022-08-11T06:15:05;2.95;;;1.98;;
71343;SDS011;59146;43.850;25.948;2022-08-11T06:17:33;5.75;;;2.13;;
71343;SDS011;59146;43.850;25.948;2022-08-11T06:20:01;5.15;;;2.10;;
71343;SDS011;59146;43.850;25.948;2022-08-11T06:22:29;5.22;;;2.00;;
71343;SDS011;59146;43.850;25.948;2022-08-11T06:24:59;4.15;;;1.85;;
71343;SDS011;59146;43.850;25.948;2022-08-11T06:27:28;9.00;;;2.20;;
71343;SDS011;59146;43.850;25.948;2022-08-11T06:29:55;11.37;;;2.07;;
71343;SDS011;59146;43.850;25.948;2022-08-11T06:32:23;6.43;;;1.65;;
71343;SDS011;59146;43.850;25.948;2022-08-11T06:38:10;3.55;;;1.80;;
71343;SDS011;59146;43.850;25.948;2022-08-11T06:46:07;7.10;;;1.70;;
71343;SDS011;59146;43.850;25.948;2022-08-11T06:48:36;4.78;;;2.42;;
71343;SDS011;59146;43.850;25.948;2022-08-11T06:51:07;6.65;;;2.00;;
71343;SDS011;59146;43.850;25.948;2022-08-11T06:53:44;4.75;;;2.10;;
71343;SDS011;59146;43.850;25.948;2022-08-11T06:56:11;4.10;;;2.03;;
71343;SDS011;59146;43.850;25.948;2022-08-11T06:58:58;5.38;;;1.70;;
71343;SDS011;59146;43.850;25.948;2022-08-11T07:01:46;7.32;;;2.08;;
71343;SDS011;59146;43.850;25.948;2022-08-11T07:04:19;3.85;;;1.70;;
71343;SDS011;59146;43.850;25.948;2022-08-11T07:07:19;5.97;;;1.63;;
71343;SDS011;59146;43.850;25.948;2022-08-11T07:10:20;5.38;;;2.00;;
71343;SDS011;59146;43.850;25.948;2022-08-11T07:13:20;6.65;;;2.08;;
71343;SDS011;59146;43.850;25.948;2022-08-11T07:16:05;2.80;;;2.03;;
71343;SDS011;59146;43.850;25.948;2022-08-11T07:18:32;6.10;;;1.80;;
71343;SDS011;59146;43.850;25.948;2022-08-11T07:21:21;3.25;;;1.80;;
71343;SDS011;59146;43.850;25.948;2022-08-11T07:24:15;2.33;;;1.70;;
71343;SDS011;59146;43.850;25.948;2022-08-11T07:27:01;2.25;;;2.08;;
71343;SDS011;59146;43.850;25.948;2022-08-11T07:29:48;7.82;;;2.40;;
71343;SDS011;59146;43.850;25.948;2022-08-11T07:32:18;7.00;;;1.98;;
71343;SDS011;59146;43.850;25.948;2022-08-11T07:34:49;2.22;;;1.80;;
71343;SDS011;59146;43.850;25.948;2022-08-11T07:37:21;3.60;;;2.00;;
71343;SDS011;59146;43.850;25.948;2022-08-11T07:39:50;6.18;;;1.85;;
71343;SDS011;59146;43.850;25.948;2022-08-11T07:42:19;9.15;;;2.28;;
71343;SDS011;59146;43.850;25.948;2022-08-11T07:44:47;8.52;;;2.25;;
71343;SDS011;59146;43.850;25.948;2022-08-11T07:47:32;6.43;;;2.03;;
71343;SDS011;59146;43.850;25.948;2022-08-11T07:50:18;5.57;;;1.88;;
71343;SDS011;59146;43.850;25.948;2022-08-11T07:53:03;8.18;;;2.05;;
71343;SDS011;59146;43.850;25.948;2022-08-11T07:55:30;4.57;;;2.28;;
71343;SDS011;59146;43.850;25.948;2022-08-11T07:57:57;4.70;;;2.20;;
71343;SDS011;59146;43.850;25.948;2022-08-11T08:00:52;9.57;;;2.13;;
71343;SDS011;59146;43.850;25.948;2022-08-11T08:03:38;4.85;;;2.05;;
71343;SDS011;59146;43.850;25.948;2022-08-11T08:06:23;5.18;;;2.55;;
71343;SDS011;59146;43.850;25.948;2022-08-11T08:09:10;5.28;;;2.75;;
71343;SDS011;59146;43.850;25.948;2022-08-11T08:11:54;2.92;;;2.63;;
71343;SDS011;59146;43.850;25.948;2022-08-11T08:14:39;6.50;;;2.30;;
71343;SDS011;59146;43.850;25.948;2022-08-11T08:17:24;5.90;;;3.25;;
71343;SDS011;59146;43.850;25.948;2022-08-11T08:20:12;7.82;;;2.50;;
71343;SDS011;59146;43.850;25.948;2022-08-11T08:22:40;5.88;;;3.03;;
71343;SDS011;59146;43.850;25.948;2022-08-11T08:25:06;7.97;;;2.85;;
71343;SDS011;59146;43.850;25.948;2022-08-11T08:27:33;4.65;;;3.00;;
71343;SDS011;59146;43.850;25.948;2022-08-11T08:30:00;6.18;;;3.03;;
71343;SDS011;59146;43.850;25.948;2022-08-11T08:32:46;8.52;;;3.40;;
71343;SDS011;59146;43.850;25.948;2022-08-11T08:35:12;6.22;;;3.05;;
71343;SDS011;59146;43.850;25.948;2022-08-11T08:37:39;6.82;;;3.45;;
71343;SDS011;59146;43.850;25.948;2022-08-11T08:40:06;13.30;;;3.63;;
71343;SDS011;59146;43.850;25.948;2022-08-11T08:42:34;10.50;;;3.67;;
71343;SDS011;59146;43.850;25.948;2022-08-11T08:45:09;8.55;;;2.75;;
71343;SDS011;59146;43.850;25.948;2022-08-11T08:47:37;7.05;;;3.03;;
71343;SDS011;59146;43.850;25.948;2022-08-11T08:50:06;9.43;;;2.70;;
71343;SDS011;59146;43.850;25.948;2022-08-11T08:52:39;5.05;;;2.83;;
71343;SDS011;59146;43.850;25.948;2022-08-11T08:55:11;7.32;;;2.92;;
71343;SDS011;59146;43.850;25.948;2022-08-11T08:57:42;10.32;;;2.35;;
71343;SDS011;59146;43.850;25.948;2022-08-11T09:00:09;2.25;;;1.92;;
71343;SDS011;59146;43.850;25.948;2022-08-11T09:02:38;3.60;;;2.20;;
71343;SDS011;59146;43.850;25.948;2022-08-11T09:05:04;3.08;;;2.17;;
71343;SDS011;59146;43.850;25.948;2022-08-11T09:07:33;9.38;;;2.22;;
71343;SDS011;59146;43.850;25.948;2022-08-11T09:09:59;4.97;;;2.58;;
71343;SDS011;59146;43.850;25.948;2022-08-11T09:12:25;3.75;;;2.40;;
71343;SDS011;59146;43.850;25.948;2022-08-11T09:14:53;2.47;;;2.17;;
71343;SDS011;59146;43.850;25.948;2022-08-11T09:17:30;11.65;;;2.92;;
71343;SDS011;59146;43.850;25.948;2022-08-11T09:20:07;4.63;;;2.60;;
71343;SDS011;59146;43.850;25.948;2022-08-11T09:22:37;3.17;;;2.15;;
71343;SDS011;59146;43.850;25.948;2022-08-11T09:25:25;6.05;;;2.50;;
71343;SDS011;59146;43.850;25.948;2022-08-11T09:28:13;3.72;;;2.10;;
71343;SDS011;59146;43.850;25.948;2022-08-11T09:30:41;5.90;;;2.42;;
71343;SDS011;59146;43.850;25.948;2022-08-11T09:33:09;8.80;;;3.00;;
71343;SDS011;59146;43.850;25.948;2022-08-11T09:35:37;4.00;;;2.47;;
71343;SDS011;59146;43.850;25.948;2022-08-11T09:38:06;2.35;;;2.10;;
71343;SDS011;59146;43.850;25.948;2022-08-11T09:40:54;9.60;;;2.38;;
71343;SDS011;59146;43.850;25.948;2022-08-11T09:43:20;5.38;;;2.25;;
71343;SDS011;59146;43.850;25.948;2022-08-11T09:46:06;7.80;;;3.03;;
71343;SDS011;59146;43.850;25.948;2022-08-11T09:48:34;6.25;;;1.90;;
71343;SDS011;59146;43.850;25.948;2022-08-11T09:51:04;5.40;;;2.40;;
71343;SDS011;59146;43.850;25.948;2022-08-11T09:53:34;6.57;;;3.20;;
71343;SDS011;59146;43.850;25.948;2022-08-11T09:56:02;5.82;;;2.47;;
71343;SDS011;59146;43.850;25.948;2022-08-11T09:58:49;4.85;;;2.22;;
71343;SDS011;59146;43.850;25.948;2022-08-11T10:01:14;8.00;;;2.13;;
71343;SDS011;59146;43.850;25.948;2022-08-11T10:03:53;7.35;;;2.33;;
71343;SDS011;59146;43.850;25.948;2022-08-11T10:06:24;3.55;;;2.17;;
71343;SDS011;59146;43.850;25.948;2022-08-11T10:09:10;4.53;;;2.40;;
71343;SDS011;59146;43.850;25.948;2022-08-11T10:11:36;7.28;;;2.25;;
71343;SDS011;59146;43.850;25.948;2022-08-11T10:14:05;4.63;;;2.42;;
71343;SDS011;59146;43.850;25.948;2022-08-11T10:16:50;3.35;;;1.60;;
71343;SDS011;59146;43.850;25.948;2022-08-11T10:19:17;10.45;;;2.50;;
71343;SDS011;59146;43.850;25.948;2022-08-11T10:21:54;3.95;;;2.00;;
71343;SDS011;59146;43.850;25.948;2022-08-11T10:24:39;2.42;;;1.63;;
71343;SDS011;59146;43.850;25.948;2022-08-11T10:27:26;11.65;;;2.30;;
71343;SDS011;59146;43.850;25.948;2022-08-11T10:29:52;12.10;;;2.20;;
71343;SDS011;59146;43.850;25.948;2022-08-11T10:32:37;6.68;;;2.50;;
71343;SDS011;59146;43.850;25.948;2022-08-11T10:35:22;6.88;;;2.17;;
71343;SDS011;59146;43.850;25.948;2022-08-11T10:37:50;8.10;;;2.10;;
71343;SDS011;59146;43.850;25.948;2022-08-11T10:40:18;12.10;;;2.38;;
71343;SDS011;59146;43.850;25.948;2022-08-11T10:42:49;3.45;;;1.95;;
71343;SDS011;59146;43.850;25.948;2022-08-11T10:45:38;3.92;;;1.85;;
71343;SDS011;59146;43.850;25.948;2022-08-11T10:48:24;5.88;;;1.70;;
71343;SDS011;59146;43.850;25.948;2022-08-11T10:50:53;6.57;;;2.70;;
71343;SDS011;59146;43.850;25.948;2022-08-11T10:53:41;3.10;;;2.20;;
71343;SDS011;59146;43.850;25.948;2022-08-11T10:56:28;7.25;;;2.03;;
71343;SDS011;59146;43.850;25.948;2022-08-11T10:59:13;2.75;;;1.85;;
71343;SDS011;59146;43.850;25.948;2022-08-11T11:01:41;3.40;;;2.30;;
71343;SDS011;59146;43.850;25.948;2022-08-11T11:04:26;3.03;;;1.77;;
71343;SDS011;59146;43.850;25.948;2022-08-11T11:07:15;6.82;;;2.25;;
71343;SDS011;59146;43.850;25.948;2022-08-11T11:09:55;4.03;;;1.88;;
71343;SDS011;59146;43.850;25.948;2022-08-11T11:12:44;11.10;;;2.20;;
71343;SDS011;59146;43.850;25.948;2022-08-11T11:15:29;2.55;;;1.98;;
71343;SDS011;59146;43.850;25.948;2022-08-11T11:18:21;5.15;;;2.30;;
71343;SDS011;59146;43.850;25.948;2022-08-11T11:23:40;4.60;;;2.30;;
71343;SDS011;59146;43.850;25.948;2022-08-11T11:29:04;9.13;;;2.50;;
71343;SDS011;59146;43.850;25.948;2022-08-11T11:37:08;6.97;;;2.40;;
71343;SDS011;59146;43.850;25.948;2022-08-11T11:39:37;11.20;;;2.03;;
71343;SDS011;59146;43.850;25.948;2022-08-11T11:42:07;9.43;;;2.20;;
71343;SDS011;59146;43.850;25.948;2022-08-11T11:44:37;3.15;;;1.92;;
71343;SDS011;59146;43.850;25.948;2022-08-11T11:47:04;6.38;;;1.85;;
71343;SDS011;59146;43.850;25.948;2022-08-11T11:49:31;7.53;;;2.42;;
71343;SDS011;59146;43.850;25.948;2022-08-11T11:52:03;6.10;;;2.10;;
71343;SDS011;59146;43.850;25.948;2022-08-11T11:54:32;7.22;;;2.47;;
71343;SDS011;59146;43.850;25.948;2022-08-11T11:57:00;4.60;;;2.15;;
71343;SDS011;59146;43.850;25.948;2022-08-11T11:59:47;11.82;;;3.03;;
71343;SDS011;59146;43.850;25.948;2022-08-11T12:02:32;3.92;;;1.77;;
71343;SDS011;59146;43.850;25.948;2022-08-11T12:05:00;7.93;;;1.85;;
71343;SDS011;59146;43.850;25.948;2022-08-11T12:07:26;3.65;;;2.22;;
71343;SDS011;59146;43.850;25.948;2022-08-11T12:10:12;3.25;;;1.85;;
71343;SDS011;59146;43.850;25.948;2022-08-11T12:12:38;3.72;;;1.85;;
71343;SDS011;59146;43.850;25.948;2022-08-11T12:15:22;3.13;;;2.10;;
71343;SDS011;59146;43.850;25.948;2022-08-11T12:17:48;5.35;;;2.13;;
71343;SDS011;59146;43.850;25.948;2022-08-11T12:20:15;3.25;;;2.22;;
71343;SDS011;59146;43.850;25.948;2022-08-11T12:22:43;6.50;;;2.25;;
71343;SDS011;59146;43.850;25.948;2022-08-11T12:25:27;9.60;;;1.98;;
71343;SDS011;59146;43.850;25.948;2022-08-11T12:28:12;3.95;;;2.30;;
71343;SDS011;59146;43.850;25.948;2022-08-11T12:30:37;5.55;;;2.00;;
71343;SDS011;59146;43.850;25.948;2022-08-11T12:33:05;8.38;;;1.90;;
71343;SDS011;59146;43.850;25.948;2022-08-11T12:35:32;7.38;;;2.28;;
71343;SDS011;59146;43.850;25.948;2022-08-11T12:37:59;10.88;;;2.15;;
71343;SDS011;59146;43.850;25.948;2022-08-11T12:40:27;10.82;;;1.85;;
71343;SDS011;59146;43.850;25.948;2022-08-11T12:43:15;5.97;;;2.13;;
71343;SDS011;59146;43.850;25.948;2022-08-11T12:46:03;5.53;;;2.15;;
71343;SDS011;59146;43.850;25.948;2022-08-11T12:48:31;3.20;;;1.83;;
71343;SDS011;59146;43.850;25.948;2022-08-11T12:51:19;3.75;;;2.38;;
71343;SDS011;59146;43.850;25.948;2022-08-11T12:54:13;6.65;;;1.70;;
71343;SDS011;59146;43.850;25.948;2022-08-11T12:56:49;6.35;;;2.10;;
71343;SDS011;59146;43.850;25.948;2022-08-11T12:59:41;5.00;;;2.00;;
71343;SDS011;59146;43.850;25.948;2022-08-11T13:02:25;3.22;;;2.20;;
71343;SDS011;59146;43.850;25.948;2022-08-11T13:05:12;5.03;;;2.38;;
71343;SDS011;59146;43.850;25.948;2022-08-11T13:07:39;12.27;;;1.90;;
71343;SDS011;59146;43.850;25.948;2022-08-11T13:10:08;9.43;;;2.35;;
71343;SDS011;59146;43.850;25.948;2022-08-11T13:12:35;5.00;;;2.35;;
71343;SDS011;59146;43.850;25.948;2022-08-11T13:15:18;10.95;;;2.80;;
71343;SDS011;59146;43.850;25.948;2022-08-11T13:17:45;11.45;;;2.40;;
71343;SDS011;59146;43.850;25.948;2022-08-11T13:20:15;6.38;;;2.03;;
71343;SDS011;59146;43.850;25.948;2022-08-11T13:22:47;9.50;;;1.90;;
71343;SDS011;59146;43.850;25.948;2022-08-11T13:25:14;3.53;;;2.20;;
71343;SDS011;59146;43.850;25.948;2022-08-11T13:27:45;9.07;;;1.77;;
71343;SDS011;59146;43.850;25.948;2022-08-11T13:30:15;4.50;;;1.75;;
71343;SDS011;59146;43.850;25.948;2022-08-11T13:33:01;2.75;;;1.90;;
71343;SDS011;59146;43.850;25.948;2022-08-11T13:35:29;6.38;;;2.30;;
71343;SDS011;59146;43.850;25.948;2022-08-11T13:37:56;2.53;;;2.10;;
71343;SDS011;59146;43.850;25.948;2022-08-11T13:40:22;5.68;;;2.22;;
71343;SDS011;59146;43.850;25.948;2022-08-11T13:42:50;4.20;;;2.00;;
71343;SDS011;59146;43.850;25.948;2022-08-11T13:45:16;5.78;;;2.28;;
71343;SDS011;59146;43.850;25.948;2022-08-11T13:47:43;4.43;;;1.90;;
71343;SDS011;59146;43.850;25.948;2022-08-11T13:50:10;4.75;;;1.98;;
71343;SDS011;59146;43.850;25.948;2022-08-11T13:52:38;3.35;;;1.95;;
71343;SDS011;59146;43.850;25.948;2022-08-11T13:55:06;4.25;;;2.00;;
71343;SDS011;59146;43.850;25.948;2022-08-11T13:57:34;2.25;;;2.10;;
71343;SDS011;59146;43.850;25.948;2022-08-11T14:00:05;3.88;;;1.63;;
71343;SDS011;59146;43.850;25.948;2022-08-11T14:02:40;4.28;;;2.03;;
71343;SDS011;59146;43.850;25.948;2022-08-11T14:05:09;7.00;;;2.03;;
71343;SDS011;59146;43.850;25.948;2022-08-11T14:07:38;6.20;;;2.30;;
71343;SDS011;59146;43.850;25.948;2022-08-11T14:10:06;5.35;;;2.20;;
71343;SDS011;59146;43.850;25.948;2022-08-11T14:12:34;5.55;;;2.08;;
71343;SDS011;59146;43.850;25.948;2022-08-11T14:17:53;6.43;;;2.08;;
71343;SDS011;59146;43.850;25.948;2022-08-11T14:20:25;2.72;;;2.13;;
71343;SDS011;59146;43.850;25.948;2022-08-11T14:23:13;6.97;;;2.95;;
71343;SDS011;59146;43.850;25.948;2022-08-11T14:25:40;4.80;;;2.08;;
71343;SDS011;59146;43.850;25.948;2022-08-11T14:28:26;4.10;;;2.15;;
71343;SDS011;59146;43.850;25.948;2022-08-11T14:30:52;3.83;;;2.08;;
71343;SDS011;59146;43.850;25.948;2022-08-11T14:33:21;8.25;;;1.73;;
71343;SDS011;59146;43.850;25.948;2022-08-11T14:35:47;5.80;;;2.03;;
71343;SDS011;59146;43.850;25.948;2022-08-11T14:38:13;7.78;;;2.40;;
71343;SDS011;59146;43.850;25.948;2022-08-11T14:40:40;5.40;;;2.08;;
71343;SDS011;59146;43.850;25.948;2022-08-11T14:43:26;10.35;;;2.78;;
71343;SDS011;59146;43.850;25.948;2022-08-11T14:46:10;2.83;;;1.90;;
71343;SDS011;59146;43.850;25.948;2022-08-11T14:48:54;5.55;;;2.22;;
71343;SDS011;59146;43.850;25.948;2022-08-11T14:51:20;6.63;;;2.08;;
71343;SDS011;59146;43.850;25.948;2022-08-11T14:53:47;8.10;;;2.55;;
71343;SDS011;59146;43.850;25.948;2022-08-11T14:56:33;5.97;;;2.30;;
71343;SDS011;59146;43.850;25.948;2022-08-11T14:59:01;10.23;;;1.98;;
71343;SDS011;59146;43.850;25.948;2022-08-11T15:01:26;4.10;;;1.90;;
71343;SDS011;59146;43.850;25.948;2022-08-11T15:04:11;5.13;;;2.20;;
71343;SDS011;59146;43.850;25.948;2022-08-11T15:06:37;5.50;;;2.00;;
71343;SDS011;59146;43.850;25.948;2022-08-11T15:09:02;5.45;;;2.25;;
71343;SDS011;59146;43.850;25.948;2022-08-11T15:11:30;3.40;;;1.95;;
71343;SDS011;59146;43.850;25.948;2022-08-11T15:14:15;13.50;;;2.05;;
71343;SDS011;59146;43.850;25.948;2022-08-11T15:17:01;6.78;;;2.10;;
71343;SDS011;59146;43.850;25.948;2022-08-11T15:19:35;7.78;;;2.63;;
71343;SDS011;59146;43.850;25.948;2022-08-11T15:22:23;7.28;;;2.20;;
71343;SDS011;59146;43.850;25.948;2022-08-11T15:25:07;7.03;;;2.03;;
71343;SDS011;59146;43.850;25.948;2022-08-11T15:27:33;5.40;;;1.77;;
71343;SDS011;59146;43.850;25.948;2022-08-11T15:30:18;3.65;;;2.03;;
71343;SDS011;59146;43.850;25.948;2022-08-11T15:33:04;11.88;;;2.03;;
71343;SDS011;59146;43.850;25.948;2022-08-11T15:35:51;7.60;;;1.98;;
71343;SDS011;59146;43.850;25.948;2022-08-11T15:38:44;6.53;;;2.00;;
71343;SDS011;59146;43.850;25.948;2022-08-11T15:41:17;9.65;;;2.30;;
71343;SDS011;59146;43.850;25.948;2022-08-11T15:44:05;4.63;;;2.17;;
71343;SDS011;59146;43.850;25.948;2022-08-11T15:46:54;8.18;;;3.03;;
71343;SDS011;59146;43.850;25.948;2022-08-11T15:49:29;8.23;;;1.83;;
71343;SDS011;59146;43.850;25.948;2022-08-11T15:54:34;12.13;;;2.03;;
71343;SDS011;59146;43.850;25.948;2022-08-11T15:57:03;3.83;;;1.90;;
71343;SDS011;59146;43.850;25.948;2022-08-11T15:59:30;3.40;;;2.10;;
71343;SDS011;59146;43.850;25.948;2022-08-11T16:02:16;4.07;;;2.10;;
71343;SDS011;59146;43.850;25.948;2022-08-11T16:05:01;2.47;;;2.08;;
71343;SDS011;59146;43.850;25.948;2022-08-11T16:07:32;7.40;;;2.20;;
71343;SDS011;59146;43.850;25.948;2022-08-11T16:10:06;6.10;;;2.20;;
71343;SDS011;59146;43.850;25.948;2022-08-11T16:12:36;10.90;;;2.72;;
71343;SDS011;59146;43.850;25.948;2022-08-11T16:15:27;15.77;;;2.17;;
71343;SDS011;59146;43.850;25.948;2022-08-11T16:18:14;6.50;;;1.98;;
71343;SDS011;59146;43.850;25.948;2022-08-11T16:20:40;5.43;;;1.92;;
71343;SDS011;59146;43.850;25.948;2022-08-11T16:23:07;6.45;;;2.20;;
71343;SDS011;59146;43.850;25.948;2022-08-11T16:25:34;13.75;;;2.72;;
71343;SDS011;59146;43.850;25.948;2022-08-11T16:28:04;9.07;;;2.15;;
71343;SDS011;59146;43.850;25.948;2022-08-11T16:33:00;9.57;;;2.17;;
71343;SDS011;59146;43.850;25.948;2022-08-11T16:35:29;5.97;;;2.55;;
71343;SDS011;59146;43.850;25.948;2022-08-11T16:38:15;6.15;;;2.53;;
71343;SDS011;59146;43.850;25.948;2022-08-11T16:41:01;3.15;;;1.98;;
71343;SDS011;59146;43.850;25.948;2022-08-11T16:43:31;8.48;;;2.13;;
71343;SDS011;59146;43.850;25.948;2022-08-11T16:46:17;5.03;;;2.20;;
71343;SDS011;59146;43.850;25.948;2022-08-11T16:49:07;7.70;;;2.40;;
71343;SDS011;59146;43.850;25.948;2022-08-11T16:51:37;7.50;;;2.70;;
71343;SDS011;59146;43.850;25.948;2022-08-11T16:54:03;5.07;;;1.92;;
71343;SDS011;59146;43.850;25.948;2022-08-11T16:56:30;5.20;;;2.15;;
71343;SDS011;59146;43.850;25.948;2022-08-11T16:59:42;5.55;;;2.53;;
71343;SDS011;59146;43.850;25.948;2022-08-11T17:02:11;7.28;;;2.88;;
71343;SDS011;59146;43.850;25.948;2022-08-11T17:05:12;11.85;;;2.60;;
71343;SDS011;59146;43.850;25.948;2022-08-11T17:08:00;5.22;;;2.42;;
71343;SDS011;59146;43.850;25.948;2022-08-11T17:10:53;11.50;;;2.30;;
71343;SDS011;59146;43.850;25.948;2022-08-11T17:14:04;4.95;;;2.33;;
71343;SDS011;59146;43.850;25.948;2022-08-11T17:16:32;6.38;;;2.63;;
71343;SDS011;59146;43.850;25.948;2022-08-11T17:19:02;10.60;;;2.90;;
71343;SDS011;59146;43.850;25.948;2022-08-11T17:24:26;15.32;;;4.90;;
71343;SDS011;59146;43.850;25.948;2022-08-11T17:26:53;5.82;;;2.63;;
71343;SDS011;59146;43.850;25.948;2022-08-11T17:29:24;9.20;;;4.32;;
71343;SDS011;59146;43.850;25.948;2022-08-11T17:31:55;13.90;;;3.45;;
71343;SDS011;59146;43.850;25.948;2022-08-11T17:34:41;13.43;;;3.97;;
71343;SDS011;59146;43.850;25.948;2022-08-11T17:37:27;9.63;;;3.08;;
71343;SDS011;59146;43.850;25.948;2022-08-11T17:39:57;11.98;;;3.00;;
71343;SDS011;59146;43.850;25.948;2022-08-11T17:42:26;14.73;;;4.28;;
71343;SDS011;59146;43.850;25.948;2022-08-11T17:45:12;8.57;;;3.50;;
71343;SDS011;59146;43.850;25.948;2022-08-11T17:47:58;8.00;;;3.42;;
71343;SDS011;59146;43.850;25.948;2022-08-11T17:50:43;12.50;;;3.33;;
71343;SDS011;59146;43.850;25.948;2022-08-11T17:53:10;8.90;;;3.78;;
71343;SDS011;59146;43.850;25.948;2022-08-11T17:55:57;7.55;;;3.60;;
71343;SDS011;59146;43.850;25.948;2022-08-11T17:58:42;15.10;;;3.65;;
71343;SDS011;59146;43.850;25.948;2022-08-11T18:01:27;14.18;;;3.88;;
71343;SDS011;59146;43.850;25.948;2022-08-11T18:06:25;8.82;;;4.45;;
71343;SDS011;59146;43.850;25.948;2022-08-11T18:08:54;18.05;;;4.88;;
71343;SDS011;59146;43.850;25.948;2022-08-11T18:11:40;12.93;;;4.47;;
71343;SDS011;59146;43.850;25.948;2022-08-11T18:14:25;18.63;;;4.32;;
71343;SDS011;59146;43.850;25.948;2022-08-11T18:17:11;17.63;;;5.35;;
71343;SDS011;59146;43.850;25.948;2022-08-11T18:19:54;16.33;;;4.80;;
71343;SDS011;59146;43.850;25.948;2022-08-11T18:22:39;22.33;;;6.50;;
71343;SDS011;59146;43.850;25.948;2022-08-11T18:25:31;17.48;;;5.38;;
71343;SDS011;59146;43.850;25.948;2022-08-11T18:28:22;12.82;;;5.53;;
71343;SDS011;59146;43.850;25.948;2022-08-11T18:31:10;13.27;;;5.78;;
71343;SDS011;59146;43.850;25.948;2022-08-11T18:33:57;8.60;;;4.60;;
71343;SDS011;59146;43.850;25.948;2022-08-11T18:36:50;15.02;;;6.43;;
71343;SDS011;59146;43.850;25.948;2022-08-11T18:39:44;20.17;;;5.68;;
71343;SDS011;59146;43.850;25.948;2022-08-11T18:42:32;4.95;;;3.33;;
71343;SDS011;59146;43.850;25.948;2022-08-11T18:45:18;8.02;;;4.88;;
71343;SDS011;59146;43.850;25.948;2022-08-11T18:48:05;12.40;;;5.43;;
71343;SDS011;59146;43.850;25.948;2022-08-11T18:50:52;14.70;;;6.50;;
71343;SDS011;59146;43.850;25.948;2022-08-11T18:53:39;16.30;;;5.80;;
71343;SDS011;59146;43.850;25.948;2022-08-11T18:56:26;11.57;;;6.00;;
71343;SDS011;59146;43.850;25.948;2022-08-11T18:59:12;21.63;;;8.50;;
71343;SDS011;59146;43.850;25.948;2022-08-11T19:02:00;11.68;;;4.90;;
71343;SDS011;59146;43.850;25.948;2022-08-11T19:04:46;20.45;;;7.40;;
71343;SDS011;59146;43.850;25.948;2022-08-11T19:07:30;9.75;;;6.10;;
71343;SDS011;59146;43.850;25.948;2022-08-11T19:10:17;19.75;;;6.43;;